Manchester, Connecticut
Current Conditions -  °F | °C
As of 7:53 AM on Thursday 23 Oct 2014 (Local Time) from KHFD Reporting Station
Overcast Overcast  
Wind Chill: 50°   Ceiling: 1700
Heat Index: 50°   Visibility: 10mi
Dew Point: 46°   Wind: 14mph
Humidity: 86%   Direction: 360°N
Pressure: 29.68"   Gusts: 23mph
Location:  41.78°N, 72.52°W
Report Text: KHFD 231153Z 36012G20KT 10SM OVC017 10/08 A2968 RMK AO2 RAE1057 SLP050 P0000 60004 70062 T01000078 10100 20100 55010
Loading
Personal Weather Stations






























Interactive Weather Map
Tropical Storm Tracking
New forecast layout! Learn more

10-Day Weather Forecast

Advertisements
Track Severe Weather on mobile